Time;durP1;ratioP1;P1;durP2;ratioP2;P2;SDS_P1;SDS_P2;PMS_P1;PMS_P2;Temp;Humidity;BMP_temperature;BMP_pressure;BME280_temperature;BME280_humidity;BME280_pressure;Samples;Min_cycle;Max_cycle;Signal;HPM_P1;HPM_P2
2021/05/24 00:00:17;;;;;;;0.40;0.40;;;;;;;13.53;86.32;100654.75;1689104;84;21069;-42
2021/05/24 00:02:43;;;;;;;2.42;1.40;;;;;;;13.55;86.15;100652.53;1689071;84;21091;-46
2021/05/24 00:05:17;;;;;;;0.20;0.20;;;;;;;13.57;85.90;100656.34;1689480;83;21068;-42
2021/05/24 00:07:43;;;;;;;0.70;0.70;;;;;;;13.59;85.70;100656.30;1689605;84;21095;-41
2021/05/24 00:10:13;;;;;;;0.57;0.57;;;;;;;13.62;86.00;100662.57;1689432;83;21325;-46
2021/05/24 00:12:46;;;;;;;0.47;0.47;;;;;;;13.64;86.37;100676.83;1689290;84;21094;-41
2021/05/24 00:15:10;;;;;;;0.68;0.45;;;;;;;13.64;86.28;100682.88;1688510;84;21054;-46
2021/05/24 00:17:38;;;;;;;1.95;0.62;;;;;;;13.62;86.00;100685.91;1689116;84;21046;-45
2021/05/24 00:20:08;;;;;;;0.25;0.25;;;;;;;13.61;85.52;100687.03;1689362;84;21089;-42
2021/05/24 00:22:34;;;;;;;0.85;0.60;;;;;;;13.65;84.78;100692.21;1688731;83;21545;-41
2021/05/24 00:25:05;;;;;;;0.45;0.45;;;;;;;13.71;84.24;100697.89;1689135;83;21068;-46
2021/05/24 00:27:32;;;;;;;0.78;0.40;;;;;;;13.78;85.03;100698.09;1689413;84;21596;-44
2021/05/24 00:29:58;;;;;;;0.45;0.45;;;;;;;13.78;85.86;100699.47;1689289;84;21480;-43
2021/05/24 00:32:25;;;;;;;1.30;0.90;;;;;;;13.71;86.77;100706.12;1689421;84;21127;-44
2021/05/24 00:34:53;;;;;;;0.78;0.78;;;;;;;13.62;87.73;100713.37;1689356;84;21134;-49
2021/05/24 00:37:20;;;;;;;1.15;1.02;;;;;;;13.53;88.77;100720.64;1689353;84;21039;-50
2021/05/24 00:39:46;;;;;;;3.10;1.30;;;;;;;13.42;89.93;100734.20;1689033;84;21055;-45
2021/05/24 00:42:14;;;;;;;0.95;0.60;;;;;;;13.31;91.08;100745.86;1689228;83;21570;-45
2021/05/24 00:44:41;;;;;;;1.35;0.98;;;;;;;13.21;91.74;100752.23;1689513;84;21107;-47
2021/05/24 00:47:08;;;;;;;0.93;0.93;;;;;;;13.12;92.22;100752.03;1689330;84;21092;-46
2021/05/24 00:49:34;;;;;;;0.72;0.72;;;;;;;13.06;92.80;100757.88;1689451;84;21085;-46
2021/05/24 00:52:01;;;;;;;1.70;1.02;;;;;;;12.99;93.43;100761.50;1689411;84;21095;-47
2021/05/24 00:54:28;;;;;;;0.95;0.85;;;;;;;12.91;94.12;100770.61;1684986;84;21047;-46
2021/05/24 00:56:58;;;;;;;0.85;0.85;;;;;;;12.86;94.61;100745.98;1689047;84;21127;-48
2021/05/24 00:59:25;;;;;;;1.17;0.95;;;;;;;12.85;95.06;100748.99;1689200;84;21058;-52
2021/05/24 01:01:52;;;;;;;1.22;0.90;;;;;;;12.82;95.56;100753.13;1688858;84;21055;-46
2021/05/24 01:04:19;;;;;;;1.07;0.95;;;;;;;12.79;96.02;100764.67;1689083;84;21490;-50
2021/05/24 01:06:48;;;;;;;1.02;0.80;;;;;;;12.77;96.58;100780.59;1689324;84;21097;-49
2021/05/24 01:09:16;;;;;;;0.82;0.82;;;;;;;12.76;97.09;100780.34;1719668;83;21031;-52
2021/05/24 01:11:43;;;;;;;1.25;1.25;;;;;;;12.74;97.60;100784.47;1719498;83;21075;-47
2021/05/24 01:14:10;;;;;;;1.05;0.85;;;;;;;12.71;98.05;100777.64;1718101;83;21031;-51
2021/05/24 01:16:38;;;;;;;1.57;0.82;;;;;;;12.68;98.50;100782.30;1689336;83;21068;-52
2021/05/24 01:19:05;;;;;;;1.37;0.82;;;;;;;12.67;98.98;100788.90;1687960;84;21525;-52
2021/05/24 01:21:31;;;;;;;2.47;1.25;;;;;;;12.65;99.41;100792.47;1689453;83;21111;-47
2021/05/24 01:23:58;;;;;;;1.92;1.80;;;;;;;12.63;99.77;100796.86;1687314;84;21057;-52
2021/05/24 01:26:25;;;;;;;0.78;0.78;;;;;;;12.61;100.00;100797.72;1709641;83;21060;-47
2021/05/24 01:28:52;;;;;;;0.80;0.80;;;;;;;12.60;100.00;100800.73;1689202;84;21072;-49
2021/05/24 01:31:18;;;;;;;1.22;0.88;;;;;;;12.61;100.00;100800.98;1689489;83;21661;-50
2021/05/24 01:33:46;;;;;;;1.50;0.72;;;;;;;12.61;100.00;100795.50;1688801;84;21051;-50
2021/05/24 01:36:13;;;;;;;1.10;0.68;;;;;;;12.60;100.00;100792.51;1689254;83;21671;-48
2021/05/24 01:38:42;;;;;;;0.65;0.65;;;;;;;12.58;100.00;100786.48;1689367;84;21083;-49
2021/05/24 01:41:11;;;;;;;1.27;0.98;;;;;;;12.58;100.00;100789.23;1689456;84;21036;-48
2021/05/24 01:43:37;;;;;;;0.70;0.70;;;;;;;12.59;100.00;100784.03;1688274;84;21106;-48
2021/05/24 01:46:04;;;;;;;0.90;0.80;;;;;;;12.57;100.00;100778.82;1689537;83;21072;-53
2021/05/24 01:48:31;;;;;;;1.05;0.78;;;;;;;12.58;100.00;100781.00;1689333;84;21600;-47
2021/05/24 01:50:58;;;;;;;3.40;0.88;;;;;;;12.56;100.00;100774.45;1689008;83;21080;-50
2021/05/24 01:53:24;;;;;;;0.95;0.93;;;;;;;12.54;100.00;100766.25;1689319;84;21043;-48
2021/05/24 01:55:52;;;;;;;0.65;0.40;;;;;;;12.51;100.00;100764.87;1689509;84;21099;-47
2021/05/24 01:58:19;;;;;;;1.82;1.67;;;;;;;12.48;100.00;100757.22;1689371;84;21075;-48
2021/05/24 02:00:45;;;;;;;0.35;0.35;;;;;;;12.46;100.00;100749.83;1689185;84;21683;-51
2021/05/24 02:03:12;;;;;;;1.22;1.15;;;;;;;12.47;100.00;100746.00;1689477;84;21106;-51
2021/05/24 02:05:38;;;;;;;1.07;1.00;;;;;;;12.48;100.00;100747.62;1689402;83;21112;-46
2021/05/24 02:08:05;;;;;;;2.40;1.30;;;;;;;12.50;100.00;100747.36;1693952;84;21028;-52
2021/05/24 02:10:36;;;;;;;0.72;0.70;;;;;;;12.49;100.00;100745.17;1703781;83;21039;-52
2021/05/24 02:13:05;;;;;;;1.22;1.12;;;;;;;12.46;100.00;100747.09;1689475;84;21096;-48
2021/05/24 02:15:35;;;;;;;4.40;1.20;;;;;;;12.44;100.00;100747.95;1689601;84;21175;-51
2021/05/24 02:18:01;;;;;;;3.15;1.22;;;;;;;12.42;100.00;100751.52;1689184;84;21122;-52
2021/05/24 02:20:29;;;;;;;0.82;0.62;;;;;;;12.39;100.00;100752.91;1688910;83;22407;-52
2021/05/24 02:22:57;;;;;;;2.55;1.05;;;;;;;12.38;100.00;100747.70;1689394;84;21056;-52
2021/05/24 02:25:24;;;;;;;0.37;0.37;;;;;;;12.37;100.00;100740.59;1704852;83;21189;-52
2021/05/24 02:27:51;;;;;;;1.47;1.37;;;;;;;12.38;100.00;100747.70;1694601;84;21583;-52
2021/05/24 02:30:20;;;;;;;0.98;0.93;;;;;;;12.36;100.00;100743.05;1694856;84;21041;-54
2021/05/24 02:32:47;;;;;;;0.65;0.65;;;;;;;12.33;100.00;100745.00;1694273;84;21079;-54
2021/05/24 02:35:16;;;;;;;1.22;0.95;;;;;;;12.30;100.00;100746.94;1671222;84;21079;-54
2021/05/24 02:37:43;;;;;;;1.47;0.72;;;;;;;12.27;100.00;100741.48;1694520;84;21066;-51
2021/05/24 02:40:10;;;;;;;1.22;1.12;;;;;;;12.26;100.00;100735.71;1694447;83;21047;-54
2021/05/24 02:42:37;;;;;;;0.70;0.62;;;;;;;12.20;100.00;100730.02;1695237;84;21047;-50
2021/05/24 02:45:07;;;;;;;1.35;0.75;;;;;;;12.16;100.00;100725.63;1694958;84;21659;-55
2021/05/24 02:47:33;;;;;;;0.82;0.82;;;;;;;12.12;100.00;100730.61;1694965;84;22069;-52
2021/05/24 02:50:00;;;;;;;0.68;0.68;;;;;;;12.08;100.00;100722.13;1695237;84;21040;-52
2021/05/24 02:52:26;;;;;;;1.30;1.20;;;;;;;12.08;100.00;100714.47;1695374;83;21107;-50
2021/05/24 02:54:52;;;;;;;1.35;1.22;;;;;;;12.07;100.00;100709.55;1703860;83;21102;-55
2021/05/24 02:57:19;;;;;;;0.47;0.40;;;;;;;12.04;100.00;100705.45;1695073;83;21059;-54
2021/05/24 02:59:45;;;;;;;2.40;0.62;;;;;;;12.05;100.00;100702.97;1695197;84;21050;-54
2021/05/24 03:02:15;;;;;;;0.37;0.37;;;;;;;12.04;100.00;100689.02;1695359;83;21628;-49
2021/05/24 03:04:40;;;;;;;0.40;0.33;;;;;;;12.03;100.00;100689.30;1694694;84;21067;-48
2021/05/24 03:07:08;;;;;;;0.82;0.82;;;;;;;12.05;100.00;100692.02;1694701;83;21055;-54
2021/05/24 03:09:36;;;;;;;0.42;0.42;;;;;;;12.08;100.00;100704.88;1670832;84;21095;-51
2021/05/24 03:12:03;;;;;;;1.40;1.32;;;;;;;12.07;100.00;100684.89;1694441;83;21091;-49
2021/05/24 03:14:29;;;;;;;0.42;0.40;;;;;;;12.08;100.00;100654.21;1695395;84;21580;-50
2021/05/24 03:16:55;;;;;;;0.57;0.57;;;;;;;12.07;100.00;100664.35;1695377;83;21071;-55
2021/05/24 03:19:23;;;;;;;0.90;0.68;;;;;;;12.08;100.00;100672.02;1695272;84;21047;-49
2021/05/24 03:21:52;;;;;;;0.75;0.30;;;;;;;12.08;100.00;100632.30;1694923;84;21029;-50
2021/05/24 03:24:18;;;;;;;1.37;1.27;;;;;;;12.07;100.00;100630.11;1695165;84;21493;-49
2021/05/24 03:26:45;;;;;;;1.15;0.80;;;;;;;12.05;100.00;100622.17;1698794;84;21070;-53
2021/05/24 03:29:11;;;;;;;0.55;0.55;;;;;;;12.07;100.00;100621.05;1693855;84;21055;-48
2021/05/24 03:31:38;;;;;;;2.45;1.12;;;;;;;12.09;100.00;100616.95;1709876;83;21509;-46
2021/05/24 03:34:04;;;;;;;0.60;0.60;;;;;;;12.12;100.00;100606.80;1710350;83;21058;-53
2021/05/24 03:36:30;;;;;;;0.93;0.72;;;;;;;12.15;100.00;100619.09;1710418;82;21074;-53
2021/05/24 03:38:58;;;;;;;0.60;0.45;;;;;;;12.19;100.00;100640.69;1710132;83;21066;-54
2021/05/24 03:41:24;;;;;;;1.10;1.02;;;;;;;12.19;100.00;100635.21;1710478;83;21021;-48
2021/05/24 03:43:51;;;;;;;2.15;1.98;;;;;;;12.21;100.00;100624.79;1710465;83;21085;-48
2021/05/24 03:46:18;;;;;;;0.47;0.45;;;;;;;12.20;100.00;100629.45;1710154;82;21595;-47
2021/05/24 03:48:44;;;;;;;1.00;0.50;;;;;;;12.19;100.00;100626.99;1710102;83;21562;-47
2021/05/24 03:51:11;;;;;;;0.20;0.20;;;;;;;12.18;100.00;100619.89;1731953;82;21078;-53
2021/05/24 03:53:38;;;;;;;2.60;0.50;;;;;;;12.15;100.00;100615.80;1710340;83;21067;-52
2021/05/24 03:56:05;;;;;;;0.45;0.45;;;;;;;12.15;100.00;100619.09;1710358;82;21083;-48
2021/05/24 03:58:31;;;;;;;0.60;0.42;;;;;;;12.14;100.00;100625.66;1744234;81;21582;-48
2021/05/24 04:00:58;;;;;;;0.95;0.95;;;;;;;12.12;100.00;100630.63;1733131;82;21042;-51
2021/05/24 04:03:25;;;;;;;1.40;0.62;;;;;;;12.11;100.00;100618.83;1733137;82;21062;-53
2021/05/24 04:05:58;;;;;;;1.25;0.42;;;;;;;12.11;100.00;100625.69;1738364;82;21623;-48
2021/05/24 04:08:21;;;;;;;0.42;0.33;;;;;;;12.11;100.00;100622.12;1749822;81;21070;-49
2021/05/24 04:10:55;;;;;;;1.85;0.72;;;;;;;12.11;100.00;100622.12;1753704;81;21071;-49
2021/05/24 04:13:19;;;;;;;1.12;1.02;;;;;;;12.10;100.00;100617.77;1753528;81;21035;-50
2021/05/24 04:15:49;;;;;;;0.80;0.57;;;;;;;12.09;100.00;100618.85;1753239;81;21031;-50
2021/05/24 04:18:16;;;;;;;0.13;0.10;;;;;;;12.09;100.00;100616.12;1753634;81;21094;-52
2021/05/24 04:20:46;;;;;;;1.00;0.50;;;;;;;12.09;100.00;100609.27;1753827;80;21043;-48
2021/05/24 04:23:14;;;;;;;0.70;0.40;;;;;;;12.07;100.00;100612.84;1754091;81;21098;-52
2021/05/24 04:25:41;;;;;;;1.20;1.12;;;;;;;12.03;100.00;100617.52;1746860;81;21049;-53
2021/05/24 04:28:07;;;;;;;0.80;0.80;;;;;;;12.00;100.00;100619.47;1748357;82;21615;-46
2021/05/24 04:30:33;;;;;;;0.20;0.20;;;;;;;12.00;100.00;100622.77;1720109;83;21035;-51
2021/05/24 04:33:00;;;;;;;0.30;0.30;;;;;;;11.98;100.00;100619.48;1713940;83;21023;-45
2021/05/24 04:35:27;;;;;;;0.68;0.68;;;;;;;11.96;100.00;100610.17;1710597;82;21420;-52
2021/05/24 04:37:53;;;;;;;1.95;0.78;;;;;;;11.91;100.00;100604.73;1697196;83;21077;-46
2021/05/24 04:40:20;;;;;;;1.02;0.60;;;;;;;11.89;100.00;100607.50;1686440;82;21034;-53
2021/05/24 04:42:47;;;;;;;0.28;0.28;;;;;;;11.86;100.00;100613.52;1678499;85;21085;-52
2021/05/24 04:45:15;;;;;;;1.02;0.93;;;;;;;11.85;100.00;100611.34;1681199;83;21035;-49
2021/05/24 04:47:42;;;;;;;0.47;0.28;;;;;;;11.86;100.00;100611.59;1669181;85;21055;-49
2021/05/24 04:50:11;;;;;;;0.62;0.62;;;;;;;11.85;100.00;100616.81;1715735;82;21074;-53
2021/05/24 04:52:38;;;;;;;0.23;0.23;;;;;;;11.87;100.00;100610.53;1676661;83;21006;-49
2021/05/24 04:55:06;;;;;;;1.27;0.70;;;;;;;11.89;100.00;100611.05;1666321;85;21062;-53
2021/05/24 04:57:33;;;;;;;0.45;0.40;;;;;;;11.92;100.00;100621.98;1696691;84;21036;-50
2021/05/24 04:59:59;;;;;;;0.55;0.55;;;;;;;11.92;100.00;100617.34;1696591;84;22002;-49
2021/05/24 05:02:27;;;;;;;0.42;0.42;;;;;;;11.93;100.00;100610.75;1695454;83;21021;-50
2021/05/24 05:04:57;;;;;;;0.95;0.95;;;;;;;11.95;100.00;100611.85;1696291;83;21639;-46
2021/05/24 05:07:27;;;;;;;0.60;0.60;;;;;;;11.96;100.00;100607.44;1736463;80;21071;-48
2021/05/24 05:09:54;;;;;;;0.10;0.10;;;;;;;11.97;100.00;100613.20;1735116;82;21040;-48
2021/05/24 05:12:20;;;;;;;0.30;0.30;;;;;;;12.00;100.00;100618.10;1747807;80;21083;-46
2021/05/24 05:14:48;;;;;;;0.80;0.80;;;;;;;12.01;100.00;100623.83;1746966;82;21159;-49
2021/05/24 05:17:14;;;;;;;0.42;0.42;;;;;;;12.02;100.00;100627.41;1692353;83;21450;-45
2021/05/24 05:19:41;;;;;;;0.62;0.62;;;;;;;12.01;100.00;100629.31;1693948;84;21081;-44
2021/05/24 05:22:07;;;;;;;1.17;0.72;;;;;;;12.02;100.00;100628.78;1693901;83;21067;-44
2021/05/24 05:24:34;;;;;;;0.25;0.25;;;;;;;12.03;100.00;100629.84;1693631;84;21078;-44
2021/05/24 05:27:01;;;;;;;0.20;0.20;;;;;;;12.05;100.00;100616.69;1697946;83;21109;-48
2021/05/24 05:29:28;;;;;;;0.42;0.20;;;;;;;12.09;100.00;100617.48;1702436;84;21055;-45
2021/05/24 05:31:54;;;;;;;0.30;0.30;;;;;;;12.11;100.00;100622.12;1677960;84;21103;-48
2021/05/24 05:34:21;;;;;;;0.40;0.40;;;;;;;12.13;100.00;100619.38;1702658;84;21079;-48
2021/05/24 05:36:47;;;;;;;0.23;0.23;;;;;;;12.14;100.00;100618.81;1678027;84;21166;-47
2021/05/24 05:39:14;;;;;;;0.35;0.35;;;;;;;12.15;100.00;100617.73;1700336;84;21098;-48
2021/05/24 05:41:40;;;;;;;0.62;0.60;;;;;;;12.14;100.00;100617.45;1702269;84;21576;-43
2021/05/24 05:44:07;;;;;;;0.62;0.62;;;;;;;12.11;100.00;100618.02;1748359;81;21058;-48
2021/05/24 05:46:34;;;;;;;0.35;0.35;;;;;;;12.08;100.00;100609.02;1748616;81;21540;-44
2021/05/24 05:49:01;;;;;;;0.60;0.47;;;;;;;12.03;100.00;100612.05;1740713;82;21580;-47
2021/05/24 05:51:28;;;;;;;0.80;0.80;;;;;;;12.01;100.00;100615.62;1740545;82;21024;-44
2021/05/24 05:53:56;;;;;;;0.50;0.50;;;;;;;11.97;100.00;100615.12;1748225;82;21011;-43
2021/05/24 05:56:23;;;;;;;0.75;0.70;;;;;;;11.94;100.00;100634.31;1757829;80;21008;-44
2021/05/24 05:58:50;;;;;;;0.90;0.55;;;;;;;11.93;100.00;100635.40;1771704;80;21027;-45
2021/05/24 06:01:16;;;;;;;0.23;0.23;;;;;;;11.91;100.00;100629.38;1759071;80;21568;-44
2021/05/24 06:03:42;;;;;;;0.37;0.33;;;;;;;11.91;100.00;100634.05;1748724;82;21108;-43
2021/05/24 06:06:09;;;;;;;0.60;0.50;;;;;;;11.89;100.00;100632.95;1748534;80;21006;-47
2021/05/24 06:08:36;;;;;;;1.27;0.85;;;;;;;11.89;100.00;100637.06;1748463;82;21063;-43
2021/05/24 06:11:02;;;;;;;0.42;0.42;;;;;;;11.88;100.00;100631.88;1748686;80;21019;-48
2021/05/24 06:13:29;;;;;;;0.65;0.65;;;;;;;11.90;100.00;100635.16;1748809;82;20980;-44
2021/05/24 06:15:55;;;;;;;0.55;0.55;;;;;;;11.90;100.00;100633.23;1748549;80;21028;-44
2021/05/24 06:18:22;;;;;;;0.65;0.65;;;;;;;11.88;100.00;100632.70;1748608;82;21015;-48
2021/05/24 06:20:48;;;;;;;0.75;0.60;;;;;;;11.87;100.00;100636.55;1748664;80;21028;-48
2021/05/24 06:23:15;;;;;;;0.60;0.60;;;;;;;11.86;100.00;100625.28;1748605;82;21023;-47
2021/05/24 06:25:42;;;;;;;8.20;0.88;;;;;;;11.86;100.00;100629.39;1746852;82;21083;-48
2021/05/24 06:28:09;;;;;;;0.42;0.42;;;;;;;11.88;100.00;100629.14;1701879;84;21866;-43
2021/05/24 06:30:36;;;;;;;0.55;0.55;;;;;;;11.87;100.00;100625.59;1702122;84;21652;-47
2021/05/24 06:33:03;;;;;;;0.42;0.20;;;;;;;11.89;100.00;100615.16;1688814;84;21587;-45
2021/05/24 06:35:30;;;;;;;0.88;0.85;;;;;;;11.92;100.00;100617.34;1748313;81;21028;-48
2021/05/24 06:37:56;;;;;;;0.42;0.42;;;;;;;11.98;100.00;100606.61;1748647;82;21892;-48
2021/05/24 06:40:22;;;;;;;0.60;0.60;;;;;;;12.04;100.00;100604.64;1748688;82;21199;-46
2021/05/24 06:42:49;;;;;;;0.10;0.10;;;;;;;12.09;100.00;100597.78;1748709;82;21023;-48
2021/05/24 06:45:16;;;;;;;0.57;0.55;;;;;;;12.15;100.00;100594.45;1748883;82;21048;-48
2021/05/24 06:47:43;;;;;;;0.50;0.50;;;;;;;12.21;100.00;100597.39;1748669;82;21076;-45
2021/05/24 06:50:10;;;;;;;1.35;0.85;;;;;;;12.26;100.00;100594.61;1748699;82;20980;-48
2021/05/24 06:52:37;;;;;;;0.65;0.37;;;;;;;12.29;100.00;100596.80;1748551;82;21039;-43
2021/05/24 06:55:04;;;;;;;0.60;0.42;;;;;;;12.32;100.00;100591.30;1727516;82;21016;-48
2021/05/24 06:57:31;;;;;;;0.40;0.40;;;;;;;12.37;100.00;100590.69;1702576;84;21074;-47
2021/05/24 06:59:57;;;;;;;0.55;0.40;;;;;;;12.45;100.00;100589.25;1702430;84;21636;-47
2021/05/24 07:02:24;;;;;;;1.45;0.50;;;;;;;12.53;100.00;100583.69;1687551;84;21417;-47
2021/05/24 07:04:50;;;;;;;0.55;0.55;;;;;;;12.55;100.00;100591.07;1748496;81;21059;-45
2021/05/24 07:07:17;;;;;;;0.30;0.30;;;;;;;12.56;100.00;100581.73;1748602;82;21091;-44
2021/05/24 07:09:44;;;;;;;1.27;1.10;;;;;;;12.53;100.00;100589.17;1748622;82;21522;-48
2021/05/24 07:12:11;;;;;;;0.30;0.30;;;;;;;12.50;100.00;100600.16;1747955;81;21020;-48
2021/05/24 07:14:37;;;;;;;0.75;0.60;;;;;;;12.46;100.00;100617.75;1748392;82;21359;-47
2021/05/24 07:17:05;;;;;;;0.70;0.70;;;;;;;12.42;100.00;100600.80;1702319;84;21011;-44
2021/05/24 07:19:33;;;;;;;1.55;0.85;;;;;;;12.39;100.00;100592.59;1748396;81;21636;-43
2021/05/24 07:22:00;;;;;;;0.95;0.88;;;;;;;12.43;100.00;100599.11;1748695;82;21039;-45
2021/05/24 07:24:26;;;;;;;0.20;0.20;;;;;;;12.47;100.00;100600.19;1702870;84;21047;-47
2021/05/24 07:26:54;;;;;;;0.30;0.30;;;;;;;12.46;100.00;100595.82;1702598;84;21070;-47
2021/05/24 07:29:21;;;;;;;0.53;0.53;;;;;;;12.48;100.00;100597.69;1702596;84;21075;-47
2021/05/24 07:31:48;;;;;;;0.68;0.68;;;;;;;12.50;100.00;100610.31;1702766;84;21051;-43
2021/05/24 07:34:14;;;;;;;0.93;0.88;;;;;;;12.47;100.00;100618.00;1665994;85;21075;-47
2021/05/24 07:36:41;;;;;;;1.22;0.70;;;;;;;12.46;100.00;100625.12;1748748;81;21529;-47
2021/05/24 07:39:08;;;;;;;2.08;0.80;;;;;;;12.41;100.00;100623.27;1748575;81;21051;-44
2021/05/24 07:41:36;;;;;;;0.72;0.62;;;;;;;12.38;100.00;100625.75;1748731;81;21062;-44
2021/05/24 07:44:04;;;;;;;0.35;0.35;;;;;;;12.32;100.00;100630.47;1748755;82;21028;-46
2021/05/24 07:46:33;;;;;;;0.23;0.23;;;;;;;12.28;100.00;100622.55;1748869;81;21132;-47
2021/05/24 07:48:59;;;;;;;0.30;0.30;;;;;;;12.24;100.00;100630.53;1748851;82;21068;-42
2021/05/24 07:51:25;;;;;;;0.75;0.45;;;;;;;12.20;100.00;100632.75;1702904;84;21909;-46
2021/05/24 07:53:53;;;;;;;0.28;0.28;;;;;;;12.16;100.00;100620.72;1702783;84;21595;-41
2021/05/24 07:56:20;;;;;;;1.22;0.98;;;;;;;12.16;100.00;100624.83;1702879;84;21580;-43
2021/05/24 07:58:46;;;;;;;0.80;0.80;;;;;;;12.15;100.00;100630.06;1702801;84;21597;-47
2021/05/24 08:01:14;;;;;;;0.68;0.47;;;;;;;12.12;100.00;100632.81;1703014;84;21038;-46
2021/05/24 08:03:41;;;;;;;1.67;0.90;;;;;;;12.13;100.00;100626.78;1702554;84;21103;-46
2021/05/24 08:06:08;;;;;;;0.42;0.42;;;;;;;12.13;100.00;100634.44;1702637;84;21070;-46
2021/05/24 08:08:35;;;;;;;0.30;0.30;;;;;;;12.13;100.00;100630.89;1687895;84;21058;-45
2021/05/24 08:11:01;;;;;;;0.70;0.70;;;;;;;12.11;100.00;100635.83;1748904;81;21082;-52
2021/05/24 08:13:29;;;;;;;0.80;0.72;;;;;;;12.09;100.00;100635.29;1748800;82;21555;-52
2021/05/24 08:15:56;;;;;;;0.47;0.47;;;;;;;12.08;100.00;100637.77;1748942;82;21043;-54
2021/05/24 08:18:22;;;;;;;1.70;1.17;;;;;;;12.04;100.00;100642.45;1702704;84;21107;-53
2021/05/24 08:20:50;;;;;;;0.62;0.62;;;;;;;12.04;100.00;100636.14;1702083;84;21082;-48
2021/05/24 08:23:17;;;;;;;1.32;0.50;;;;;;;12.02;100.00;100643.29;1678275;84;21191;-48
2021/05/24 08:25:43;;;;;;;0.45;0.45;;;;;;;12.03;100.00;100639.44;1702761;84;21466;-53
2021/05/24 08:28:09;;;;;;;0.42;0.42;;;;;;;12.07;100.00;100654.77;1702284;84;21607;-49
2021/05/24 08:30:36;;;;;;;1.85;0.42;;;;;;;12.10;100.00;100654.75;1702860;82;21074;-48
2021/05/24 08:33:02;;;;;;;0.20;0.20;;;;;;;12.11;100.00;100652.27;1702794;84;21023;-47
2021/05/24 08:35:29;;;;;;;0.57;0.57;;;;;;;12.13;100.00;100659.65;1702703;82;21070;-52
2021/05/24 08:37:55;;;;;;;0.28;0.28;;;;;;;12.12;100.00;100667.61;1718040;83;21058;-53
2021/05/24 08:40:23;;;;;;;0.50;0.40;;;;;;;12.11;100.00;100672.81;1748578;80;21742;-47
2021/05/24 08:42:50;;;;;;;1.05;0.95;;;;;;;12.12;100.00;100668.98;1748800;81;21130;-47
2021/05/24 08:45:18;;;;;;;0.78;0.72;;;;;;;12.11;100.00;100674.98;1748569;80;21047;-48
2021/05/24 08:47:44;;;;;;;1.50;1.40;;;;;;;12.10;100.00;100676.66;1748758;82;21035;-47
2021/05/24 08:50:13;;;;;;;0.40;0.40;;;;;;;12.09;100.00;100675.84;1748706;80;21063;-53
2021/05/24 08:52:40;;;;;;;0.88;0.62;;;;;;;12.09;100.00;100680.48;1748737;81;21046;-48
2021/05/24 08:55:08;;;;;;;0.53;0.53;;;;;;;12.08;100.00;100682.97;1748613;81;21031;-54
2021/05/24 08:57:39;;;;;;;1.15;1.05;;;;;;;12.07;100.00;100686.80;1727567;82;20999;-48
2021/05/24 09:00:09;;;;;;;0.57;0.57;;;;;;;12.06;100.00;100687.34;1748806;82;26414;-48
2021/05/24 09:02:40;;;;;;;0.42;0.42;;;;;;;12.03;100.00;100682.45;1748745;82;21012;-53
2021/05/24 09:05:09;;;;;;;0.42;0.42;;;;;;;12.02;100.00;100678.89;1748821;81;21099;-48
2021/05/24 09:07:56;;;;;;;0.45;0.45;;;;;;;12.00;100.00;100694.78;1748656;82;21052;-53
2021/05/24 09:10:26;;;;;;;0.60;0.60;;;;;;;11.99;100.00;100696.43;1720024;80;22019;-54
2021/05/24 09:12:52;;;;;;;0.45;0.45;;;;;;;11.98;100.00;100703.02;1717857;83;21074;-54
2021/05/24 09:15:20;;;;;;;0.68;0.62;;;;;;;11.98;100.00;100698.35;1748758;82;21027;-53
2021/05/24 09:17:50;;;;;;;0.17;0.17;;;;;;;12.00;100.00;100699.45;1748840;82;21031;-48
2021/05/24 09:20:27;;;;;;;0.53;0.30;;;;;;;12.01;100.00;100712.84;1748630;81;21000;-55
2021/05/24 09:23:16;;;;;;;1.75;0.82;;;;;;;12.02;100.00;100707.66;1702796;84;21589;-51
2021/05/24 09:25:50;;;;;;;0.10;0.10;;;;;;;12.03;100.00;100712.02;1702616;82;21099;-54
2021/05/24 09:28:39;;;;;;;0.55;0.30;;;;;;;12.03;100.00;100712.02;1702419;84;21035;-54
2021/05/24 09:31:12;;;;;;;0.37;0.30;;;;;;;11.99;100.00;100716.44;1702799;82;21441;-47
2021/05/24 09:33:57;;;;;;;0.23;0.23;;;;;;;12.00;100.00;100715.88;1702231;84;21066;-48
2021/05/24 09:36:25;;;;;;;0.33;0.33;;;;;;;12.01;100.00;100722.42;1702624;84;21066;-52
2021/05/24 09:39:02;;;;;;;0.33;0.30;;;;;;;11.99;100.00;100735.61;1702712;84;21067;-46
2021/05/24 09:41:31;;;;;;;0.50;0.45;;;;;;;11.97;100.00;100728.78;1680268;84;21092;-48
2021/05/24 09:43:59;;;;;;;0.82;0.82;;;;;;;11.96;100.00;100734.78;1678957;84;21129;-50
2021/05/24 09:46:30;;;;;;;0.68;0.68;;;;;;;11.97;100.00;100732.33;1678514;84;21695;-49
2021/05/24 09:49:03;;;;;;;0.68;0.68;;;;;;;12.00;100.00;100739.16;1717941;83;21066;-54
2021/05/24 09:51:31;;;;;;;0.42;0.35;;;;;;;12.01;100.00;100742.97;1748741;80;21553;-47
2021/05/24 09:54:10;;;;;;;1.37;0.70;;;;;;;12.01;100.00;100730.64;1735313;81;21537;-48
2021/05/24 09:56:43;;;;;;;0.10;0.10;;;;;;;12.04;100.00;100739.69;1718798;82;21039;-46
2021/05/24 09:59:13;;;;;;;0.30;0.30;;;;;;;12.06;100.00;100746.23;1729506;82;21560;-48
2021/05/24 10:01:47;;;;;;;0.57;0.33;;;;;;;12.07;100.00;100740.20;1748523;80;21052;-53
2021/05/24 10:04:24;;;;;;;0.15;0.15;;;;;;;12.07;100.00;100738.83;1748612;82;21370;-46
2021/05/24 10:06:51;;;;;;;0.23;0.23;;;;;;;12.09;100.00;100750.33;1726430;82;21043;-49
2021/05/24 10:09:18;;;;;;;0.28;0.05;;;;;;;12.08;100.00;100746.78;1748528;82;21039;-54
2021/05/24 10:11:49;;;;;;;0.28;0.20;;;;;;;12.11;100.00;100759.91;1717969;83;21059;-52
2021/05/24 10:14:21;;;;;;;0.15;0.15;;;;;;;12.10;100.00;100751.43;1748318;82;32932;-47
2021/05/24 10:16:57;;;;;;;0.13;0.13;;;;;;;12.08;100.00;100759.11;1730921;82;21039;-53
2021/05/24 10:19:23;;;;;;;0.08;0.08;;;;;;;12.08;100.00;100752.81;1748642;82;20992;-46
2021/05/24 10:21:50;;;;;;;0.47;0.47;;;;;;;12.05;100.00;100753.64;1748563;81;21556;-52
2021/05/24 10:24:22;;;;;;;0.57;0.57;;;;;;;12.07;100.00;100763.48;1748604;81;20988;-47
2021/05/24 10:26:47;;;;;;;2.50;0.30;;;;;;;12.06;100.00;100769.52;1748365;80;21620;-49
2021/05/24 10:29:14;;;;;;;1.00;0.93;;;;;;;12.08;100.00;100770.62;1741904;81;21072;-49
2021/05/24 10:31:42;;;;;;;0.30;0.23;;;;;;;12.09;100.00;100769.50;1684706;84;21082;-48
2021/05/24 10:34:19;;;;;;;0.40;0.23;;;;;;;12.10;100.00;100772.53;1661685;84;21054;-49
2021/05/24 10:36:48;;;;;;;0.10;0.10;;;;;;;12.12;100.00;100774.45;1698478;83;21042;-54
2021/05/24 10:39:22;;;;;;;0.10;0.10;;;;;;;12.12;100.00;100771.70;1698488;83;21059;-47
2021/05/24 10:41:59;;;;;;;0.20;0.20;;;;;;;12.14;100.00;100788.66;1698227;83;21651;-46
2021/05/24 10:44:45;;;;;;;0.47;0.30;;;;;;;12.14;100.00;100788.66;1685508;85;21499;-53
2021/05/24 10:47:26;;;;;;;0.30;0.30;;;;;;;12.17;100.00;100793.59;1669133;84;21565;-50
2021/05/24 10:50:05;;;;;;;0.10;0.10;;;;;;;12.19;100.00;100790.00;1693016;84;21063;-54
2021/05/24 10:52:35;;;;;;;0.10;0.10;;;;;;;12.18;100.00;100793.30;1692726;84;21834;-48
2021/05/24 10:55:28;;;;;;;0.50;0.42;;;;;;;12.17;100.00;100800.44;1692976;83;21087;-46
2021/05/24 10:58:05;;;;;;;0.78;0.78;;;;;;;12.13;100.00;100798.80;1693225;84;21087;-47
2021/05/24 11:00:59;;;;;;;0.25;0.17;;;;;;;12.10;100.00;100804.84;1668933;84;21123;-52
2021/05/24 11:03:24;;;;;;;0.60;0.30;;;;;;;12.09;100.00;100811.97;1692853;84;21108;-47
2021/05/24 11:06:16;;;;;;;0.40;0.40;;;;;;;12.08;100.00;100813.08;1693020;83;21103;-46
2021/05/24 11:09:00;;;;;;;0.10;0.10;;;;;;;12.07;100.00;100808.67;1693141;84;21063;-53
2021/05/24 11:11:29;;;;;;;0.10;0.10;;;;;;;12.04;100.00;100821.86;1693039;83;21632;-52
2021/05/24 11:14:03;;;;;;;0.23;0.20;;;;;;;12.07;100.00;100823.74;1691510;84;21558;-49
2021/05/24 11:16:32;;;;;;;0.72;0.35;;;;;;;12.09;100.00;100802.38;1692332;84;21027;-54
2021/05/24 11:19:11;;;;;;;0.42;0.37;;;;;;;12.10;100.00;100819.09;1692864;84;21289;-49
2021/05/24 11:21:54;;;;;;;0.37;0.37;;;;;;;12.11;100.00;100831.68;1667809;84;21128;-53
2021/05/24 11:27:12;;;;;;;0.30;0.30;;;;;;;12.23;100.00;100823.95;1693007;83;21060;-50